sensor_id;sensor_type;location;lat;lon;timestamp;P1;durP1;ratioP1;P2;durP2;ratioP2
69596;SDS011;70000;51.176;-115.568;2024-02-15T00:00:58;2.80;;;0.70;;
69596;SDS011;70000;51.176;-115.568;2024-02-15T00:03:31;3.70;;;1.10;;
69596;SDS011;70000;51.176;-115.568;2024-02-15T00:06:01;3.00;;;0.80;;
69596;SDS011;70000;51.176;-115.568;2024-02-15T00:08:30;3.60;;;1.10;;
69596;SDS011;70000;51.176;-115.568;2024-02-15T00:11:01;3.30;;;0.90;;
69596;SDS011;70000;51.176;-115.568;2024-02-15T00:13:32;4.10;;;1.00;;
69596;SDS011;70000;51.176;-115.568;2024-02-15T00:16:02;4.30;;;1.10;;
69596;SDS011;70000;51.176;-115.568;2024-02-15T00:18:32;4.30;;;1.20;;
69596;SDS011;70000;51.176;-115.568;2024-02-15T00:23:32;5.10;;;1.60;;
69596;SDS011;70000;51.176;-115.568;2024-02-15T00:26:01;4.60;;;1.50;;
69596;SDS011;70000;51.176;-115.568;2024-02-15T00:28:34;4.20;;;1.20;;
69596;SDS011;70000;51.176;-115.568;2024-02-15T00:31:04;5.60;;;1.70;;
69596;SDS011;70000;51.176;-115.568;2024-02-15T00:33:32;4.10;;;1.10;;
69596;SDS011;70000;51.176;-115.568;2024-02-15T00:36:04;4.40;;;1.40;;
69596;SDS011;70000;51.176;-115.568;2024-02-15T00:38:33;4.20;;;1.20;;
69596;SDS011;70000;51.176;-115.568;2024-02-15T00:41:04;3.90;;;1.20;;
69596;SDS011;70000;51.176;-115.568;2024-02-15T00:43:37;3.90;;;1.10;;
69596;SDS011;70000;51.176;-115.568;2024-02-15T00:46:06;3.70;;;0.90;;
69596;SDS011;70000;51.176;-115.568;2024-02-15T00:48:35;3.60;;;1.00;;
69596;SDS011;70000;51.176;-115.568;2024-02-15T00:51:05;3.80;;;1.10;;
69596;SDS011;70000;51.176;-115.568;2024-02-15T00:53:34;8.20;;;2.10;;
69596;SDS011;70000;51.176;-115.568;2024-02-15T00:56:03;4.10;;;1.10;;
69596;SDS011;70000;51.176;-115.568;2024-02-15T00:58:36;3.10;;;0.90;;
69596;SDS011;70000;51.176;-115.568;2024-02-15T01:01:05;3.80;;;0.80;;
69596;SDS011;70000;51.176;-115.568;2024-02-15T01:03:35;3.00;;;0.90;;
69596;SDS011;70000;51.176;-115.568;2024-02-15T01:06:04;5.40;;;1.10;;
69596;SDS011;70000;51.176;-115.568;2024-02-15T01:08:34;4.10;;;1.10;;
69596;SDS011;70000;51.176;-115.568;2024-02-15T01:11:05;3.30;;;0.90;;
69596;SDS011;70000;51.176;-115.568;2024-02-15T01:13:34;3.90;;;1.10;;
69596;SDS011;70000;51.176;-115.568;2024-02-15T01:16:04;4.40;;;1.20;;
69596;SDS011;70000;51.176;-115.568;2024-02-15T01:18:34;3.90;;;1.00;;
69596;SDS011;70000;51.176;-115.568;2024-02-15T01:21:07;3.40;;;0.90;;
69596;SDS011;70000;51.176;-115.568;2024-02-15T01:23:39;3.40;;;0.90;;
69596;SDS011;70000;51.176;-115.568;2024-02-15T01:26:14;3.10;;;0.80;;
69596;SDS011;70000;51.176;-115.568;2024-02-15T01:28:44;3.50;;;0.90;;
69596;SDS011;70000;51.176;-115.568;2024-02-15T01:31:14;3.80;;;1.10;;
69596;SDS011;70000;51.176;-115.568;2024-02-15T01:33:46;3.90;;;0.90;;
69596;SDS011;70000;51.176;-115.568;2024-02-15T01:36:17;3.70;;;0.90;;
69596;SDS011;70000;51.176;-115.568;2024-02-15T01:38:51;3.20;;;0.90;;
69596;SDS011;70000;51.176;-115.568;2024-02-15T01:41:21;4.10;;;1.20;;
69596;SDS011;70000;51.176;-115.568;2024-02-15T01:43:54;3.40;;;1.00;;
69596;SDS011;70000;51.176;-115.568;2024-02-15T01:46:24;3.30;;;0.80;;
69596;SDS011;70000;51.176;-115.568;2024-02-15T01:48:57;3.70;;;1.10;;
69596;SDS011;70000;51.176;-115.568;2024-02-15T01:51:27;3.60;;;1.00;;
69596;SDS011;70000;51.176;-115.568;2024-02-15T01:53:58;3.30;;;0.90;;
69596;SDS011;70000;51.176;-115.568;2024-02-15T01:56:29;3.40;;;0.90;;
69596;SDS011;70000;51.176;-115.568;2024-02-15T01:59:04;3.50;;;1.00;;
69596;SDS011;70000;51.176;-115.568;2024-02-15T02:01:34;4.20;;;1.10;;
69596;SDS011;70000;51.176;-115.568;2024-02-15T02:04:04;5.20;;;1.00;;
69596;SDS011;70000;51.176;-115.568;2024-02-15T02:06:40;3.40;;;1.00;;
69596;SDS011;70000;51.176;-115.568;2024-02-15T02:12:22;3.90;;;1.20;;
69596;SDS011;70000;51.176;-115.568;2024-02-15T02:14:56;4.50;;;1.20;;
69596;SDS011;70000;51.176;-115.568;2024-02-15T02:17:26;4.10;;;1.20;;
69596;SDS011;70000;51.176;-115.568;2024-02-15T02:19:56;4.80;;;1.20;;
69596;SDS011;70000;51.176;-115.568;2024-02-15T02:22:27;3.90;;;1.00;;
69596;SDS011;70000;51.176;-115.568;2024-02-15T02:25:07;5.10;;;1.10;;
69596;SDS011;70000;51.176;-115.568;2024-02-15T02:27:39;4.00;;;1.20;;
69596;SDS011;70000;51.176;-115.568;2024-02-15T02:30:17;3.60;;;1.00;;
69596;SDS011;70000;51.176;-115.568;2024-02-15T02:32:49;3.40;;;0.90;;
69596;SDS011;70000;51.176;-115.568;2024-02-15T02:35:23;4.60;;;1.10;;
69596;SDS011;70000;51.176;-115.568;2024-02-15T02:37:56;3.00;;;0.80;;
69596;SDS011;70000;51.176;-115.568;2024-02-15T02:40:25;6.10;;;1.20;;
69596;SDS011;70000;51.176;-115.568;2024-02-15T02:42:56;7.30;;;1.20;;
69596;SDS011;70000;51.176;-115.568;2024-02-15T02:45:28;4.50;;;1.30;;
69596;SDS011;70000;51.176;-115.568;2024-02-15T02:47:57;3.70;;;1.20;;
69596;SDS011;70000;51.176;-115.568;2024-02-15T02:50:26;4.20;;;1.20;;
69596;SDS011;70000;51.176;-115.568;2024-02-15T02:52:56;3.90;;;1.20;;
69596;SDS011;70000;51.176;-115.568;2024-02-15T02:55:25;4.80;;;1.30;;
69596;SDS011;70000;51.176;-115.568;2024-02-15T02:57:55;3.80;;;1.00;;
69596;SDS011;70000;51.176;-115.568;2024-02-15T03:00:24;4.30;;;1.30;;
69596;SDS011;70000;51.176;-115.568;2024-02-15T03:03:04;4.40;;;0.90;;
69596;SDS011;70000;51.176;-115.568;2024-02-15T03:05:37;4.10;;;1.20;;
69596;SDS011;70000;51.176;-115.568;2024-02-15T03:08:15;5.00;;;1.10;;
69596;SDS011;70000;51.176;-115.568;2024-02-15T03:10:48;4.50;;;1.00;;
69596;SDS011;70000;51.176;-115.568;2024-02-15T03:13:22;4.70;;;1.40;;
69596;SDS011;70000;51.176;-115.568;2024-02-15T03:15:58;4.80;;;1.40;;
69596;SDS011;70000;51.176;-115.568;2024-02-15T03:18:27;4.30;;;1.30;;
69596;SDS011;70000;51.176;-115.568;2024-02-15T03:20:57;4.50;;;1.40;;
69596;SDS011;70000;51.176;-115.568;2024-02-15T03:23:27;3.60;;;0.90;;
69596;SDS011;70000;51.176;-115.568;2024-02-15T03:25:58;4.30;;;1.30;;
69596;SDS011;70000;51.176;-115.568;2024-02-15T03:28:28;4.40;;;1.50;;
69596;SDS011;70000;51.176;-115.568;2024-02-15T03:30:58;4.00;;;1.20;;
69596;SDS011;70000;51.176;-115.568;2024-02-15T03:33:30;4.80;;;1.60;;
69596;SDS011;70000;51.176;-115.568;2024-02-15T03:36:18;4.90;;;1.10;;
69596;SDS011;70000;51.176;-115.568;2024-02-15T03:38:49;4.10;;;1.20;;
69596;SDS011;70000;51.176;-115.568;2024-02-15T03:41:28;4.70;;;1.40;;
69596;SDS011;70000;51.176;-115.568;2024-02-15T03:44:01;4.30;;;1.40;;
69596;SDS011;70000;51.176;-115.568;2024-02-15T03:46:31;5.20;;;1.40;;
69596;SDS011;70000;51.176;-115.568;2024-02-15T03:49:26;4.90;;;1.50;;
69596;SDS011;70000;51.176;-115.568;2024-02-15T03:51:55;4.90;;;1.50;;
69596;SDS011;70000;51.176;-115.568;2024-02-15T03:55:05;5.10;;;1.50;;
69596;SDS011;70000;51.176;-115.568;2024-02-15T03:57:38;4.80;;;1.30;;
69596;SDS011;70000;51.176;-115.568;2024-02-15T04:00:29;5.20;;;1.60;;
69596;SDS011;70000;51.176;-115.568;2024-02-15T04:02:59;4.50;;;1.30;;
69596;SDS011;70000;51.176;-115.568;2024-02-15T04:05:29;6.20;;;1.70;;
69596;SDS011;70000;51.176;-115.568;2024-02-15T04:07:59;5.60;;;1.60;;
69596;SDS011;70000;51.176;-115.568;2024-02-15T04:10:30;6.20;;;1.40;;
69596;SDS011;70000;51.176;-115.568;2024-02-15T04:13:00;4.80;;;1.30;;
69596;SDS011;70000;51.176;-115.568;2024-02-15T04:15:32;4.30;;;1.10;;
69596;SDS011;70000;51.176;-115.568;2024-02-15T04:18:01;4.60;;;1.40;;
69596;SDS011;70000;51.176;-115.568;2024-02-15T04:20:31;4.80;;;1.20;;
69596;SDS011;70000;51.176;-115.568;2024-02-15T04:23:00;5.50;;;1.40;;
69596;SDS011;70000;51.176;-115.568;2024-02-15T04:25:29;5.50;;;1.60;;
69596;SDS011;70000;51.176;-115.568;2024-02-15T04:27:59;4.80;;;1.30;;
69596;SDS011;70000;51.176;-115.568;2024-02-15T04:30:31;5.10;;;1.60;;
69596;SDS011;70000;51.176;-115.568;2024-02-15T04:33:03;4.40;;;1.60;;
69596;SDS011;70000;51.176;-115.568;2024-02-15T04:35:34;5.60;;;1.90;;
69596;SDS011;70000;51.176;-115.568;2024-02-15T04:38:03;5.90;;;1.70;;
69596;SDS011;70000;51.176;-115.568;2024-02-15T04:40:32;4.80;;;1.40;;
69596;SDS011;70000;51.176;-115.568;2024-02-15T04:43:02;4.60;;;1.40;;
69596;SDS011;70000;51.176;-115.568;2024-02-15T04:45:32;6.60;;;1.80;;
69596;SDS011;70000;51.176;-115.568;2024-02-15T04:48:01;4.70;;;1.10;;
69596;SDS011;70000;51.176;-115.568;2024-02-15T04:50:31;5.50;;;1.20;;
69596;SDS011;70000;51.176;-115.568;2024-02-15T04:53:00;4.80;;;1.40;;
69596;SDS011;70000;51.176;-115.568;2024-02-15T04:55:29;5.40;;;1.50;;
69596;SDS011;70000;51.176;-115.568;2024-02-15T04:58:00;5.00;;;1.40;;
69596;SDS011;70000;51.176;-115.568;2024-02-15T05:00:29;5.10;;;1.30;;
69596;SDS011;70000;51.176;-115.568;2024-02-15T05:02:58;4.70;;;1.40;;
69596;SDS011;70000;51.176;-115.568;2024-02-15T05:05:27;4.90;;;1.50;;
69596;SDS011;70000;51.176;-115.568;2024-02-15T05:07:57;5.10;;;1.50;;
69596;SDS011;70000;51.176;-115.568;2024-02-15T05:10:29;5.40;;;1.40;;
69596;SDS011;70000;51.176;-115.568;2024-02-15T05:12:58;3.90;;;1.10;;
69596;SDS011;70000;51.176;-115.568;2024-02-15T05:15:32;5.90;;;1.50;;
69596;SDS011;70000;51.176;-115.568;2024-02-15T05:18:01;5.10;;;1.50;;
69596;SDS011;70000;51.176;-115.568;2024-02-15T05:20:30;5.80;;;1.70;;
69596;SDS011;70000;51.176;-115.568;2024-02-15T05:23:02;5.00;;;1.50;;
69596;SDS011;70000;51.176;-115.568;2024-02-15T05:25:32;6.60;;;1.60;;
69596;SDS011;70000;51.176;-115.568;2024-02-15T05:28:02;6.10;;;1.40;;
69596;SDS011;70000;51.176;-115.568;2024-02-15T05:30:34;5.60;;;1.90;;
69596;SDS011;70000;51.176;-115.568;2024-02-15T05:33:07;5.10;;;1.70;;
69596;SDS011;70000;51.176;-115.568;2024-02-15T05:35:38;6.50;;;2.00;;
69596;SDS011;70000;51.176;-115.568;2024-02-15T05:38:09;5.10;;;1.40;;
69596;SDS011;70000;51.176;-115.568;2024-02-15T05:40:39;5.10;;;1.60;;
69596;SDS011;70000;51.176;-115.568;2024-02-15T05:43:09;4.20;;;1.20;;
69596;SDS011;70000;51.176;-115.568;2024-02-15T05:45:38;6.00;;;1.70;;
69596;SDS011;70000;51.176;-115.568;2024-02-15T05:48:11;5.40;;;1.80;;
69596;SDS011;70000;51.176;-115.568;2024-02-15T05:50:42;5.50;;;1.80;;
69596;SDS011;70000;51.176;-115.568;2024-02-15T05:53:11;4.50;;;1.30;;
69596;SDS011;70000;51.176;-115.568;2024-02-15T05:55:41;4.70;;;1.50;;
69596;SDS011;70000;51.176;-115.568;2024-02-15T05:58:12;4.70;;;1.50;;
69596;SDS011;70000;51.176;-115.568;2024-02-15T06:00:43;5.70;;;1.60;;
69596;SDS011;70000;51.176;-115.568;2024-02-15T06:03:18;6.00;;;1.50;;
69596;SDS011;70000;51.176;-115.568;2024-02-15T06:05:54;6.20;;;2.10;;
69596;SDS011;70000;51.176;-115.568;2024-02-15T06:08:29;5.30;;;1.70;;
69596;SDS011;70000;51.176;-115.568;2024-02-15T06:13:32;5.20;;;1.70;;
69596;SDS011;70000;51.176;-115.568;2024-02-15T06:16:17;8.60;;;2.00;;
69596;SDS011;70000;51.176;-115.568;2024-02-15T06:18:46;5.40;;;1.90;;
69596;SDS011;70000;51.176;-115.568;2024-02-15T06:21:18;5.80;;;1.80;;
69596;SDS011;70000;51.176;-115.568;2024-02-15T06:23:48;5.40;;;1.50;;
69596;SDS011;70000;51.176;-115.568;2024-02-15T06:26:19;6.30;;;2.00;;
69596;SDS011;70000;51.176;-115.568;2024-02-15T06:28:48;5.80;;;1.90;;
69596;SDS011;70000;51.176;-115.568;2024-02-15T06:31:35;5.30;;;1.50;;
69596;SDS011;70000;51.176;-115.568;2024-02-15T06:34:25;6.00;;;1.80;;
69596;SDS011;70000;51.176;-115.568;2024-02-15T06:37:35;4.90;;;1.50;;
69596;SDS011;70000;51.176;-115.568;2024-02-15T06:40:28;5.10;;;1.40;;
69596;SDS011;70000;51.176;-115.568;2024-02-15T06:42:58;4.90;;;1.60;;
69596;SDS011;70000;51.176;-115.568;2024-02-15T06:45:27;5.40;;;1.70;;
69596;SDS011;70000;51.176;-115.568;2024-02-15T06:48:00;5.10;;;1.50;;
69596;SDS011;70000;51.176;-115.568;2024-02-15T06:50:29;5.00;;;1.50;;
69596;SDS011;70000;51.176;-115.568;2024-02-15T06:52:58;5.20;;;1.50;;
69596;SDS011;70000;51.176;-115.568;2024-02-15T06:55:27;4.90;;;1.30;;
69596;SDS011;70000;51.176;-115.568;2024-02-15T06:57:56;4.90;;;1.50;;
69596;SDS011;70000;51.176;-115.568;2024-02-15T07:00:25;4.90;;;1.70;;
69596;SDS011;70000;51.176;-115.568;2024-02-15T07:02:54;5.50;;;1.40;;
69596;SDS011;70000;51.176;-115.568;2024-02-15T07:05:23;4.40;;;1.30;;
69596;SDS011;70000;51.176;-115.568;2024-02-15T07:07:56;3.80;;;0.90;;
69596;SDS011;70000;51.176;-115.568;2024-02-15T07:10:25;6.00;;;1.40;;
69596;SDS011;70000;51.176;-115.568;2024-02-15T07:12:53;5.30;;;1.40;;
69596;SDS011;70000;51.176;-115.568;2024-02-15T07:15:24;4.40;;;1.20;;
69596;SDS011;70000;51.176;-115.568;2024-02-15T07:17:54;5.00;;;1.50;;
69596;SDS011;70000;51.176;-115.568;2024-02-15T07:20:25;6.00;;;1.90;;
69596;SDS011;70000;51.176;-115.568;2024-02-15T07:22:55;6.20;;;2.30;;
69596;SDS011;70000;51.176;-115.568;2024-02-15T07:25:24;6.00;;;2.40;;
69596;SDS011;70000;51.176;-115.568;2024-02-15T07:27:54;6.10;;;2.10;;
69596;SDS011;70000;51.176;-115.568;2024-02-15T07:30:24;7.50;;;2.10;;
69596;SDS011;70000;51.176;-115.568;2024-02-15T07:32:53;5.90;;;1.70;;
69596;SDS011;70000;51.176;-115.568;2024-02-15T07:35:23;5.10;;;1.70;;
69596;SDS011;70000;51.176;-115.568;2024-02-15T07:37:56;5.70;;;1.50;;
69596;SDS011;70000;51.176;-115.568;2024-02-15T07:40:29;4.90;;;1.50;;
69596;SDS011;70000;51.176;-115.568;2024-02-15T07:42:58;5.80;;;1.70;;
69596;SDS011;70000;51.176;-115.568;2024-02-15T07:45:27;5.10;;;1.20;;
69596;SDS011;70000;51.176;-115.568;2024-02-15T07:47:56;5.00;;;1.50;;
69596;SDS011;70000;51.176;-115.568;2024-02-15T07:50:26;7.70;;;1.70;;
69596;SDS011;70000;51.176;-115.568;2024-02-15T07:52:55;4.40;;;1.00;;
69596;SDS011;70000;51.176;-115.568;2024-02-15T07:55:24;4.90;;;1.00;;
69596;SDS011;70000;51.176;-115.568;2024-02-15T07:57:54;5.00;;;1.40;;
69596;SDS011;70000;51.176;-115.568;2024-02-15T08:00:23;5.20;;;1.30;;
69596;SDS011;70000;51.176;-115.568;2024-02-15T08:02:55;5.00;;;1.30;;
69596;SDS011;70000;51.176;-115.568;2024-02-15T08:05:25;4.80;;;1.10;;
69596;SDS011;70000;51.176;-115.568;2024-02-15T08:07:54;4.50;;;1.30;;
69596;SDS011;70000;51.176;-115.568;2024-02-15T08:10:25;4.40;;;1.20;;
69596;SDS011;70000;51.176;-115.568;2024-02-15T08:12:57;4.90;;;1.50;;
69596;SDS011;70000;51.176;-115.568;2024-02-15T08:15:26;5.30;;;1.30;;
69596;SDS011;70000;51.176;-115.568;2024-02-15T08:17:58;5.00;;;1.20;;
69596;SDS011;70000;51.176;-115.568;2024-02-15T08:20:27;4.30;;;1.30;;
69596;SDS011;70000;51.176;-115.568;2024-02-15T08:22:59;5.00;;;1.40;;
69596;SDS011;70000;51.176;-115.568;2024-02-15T08:25:30;5.20;;;1.50;;
69596;SDS011;70000;51.176;-115.568;2024-02-15T08:27:59;4.80;;;1.30;;
69596;SDS011;70000;51.176;-115.568;2024-02-15T08:30:33;4.20;;;1.00;;
69596;SDS011;70000;51.176;-115.568;2024-02-15T08:33:03;4.90;;;1.20;;
69596;SDS011;70000;51.176;-115.568;2024-02-15T08:35:32;4.50;;;1.10;;
69596;SDS011;70000;51.176;-115.568;2024-02-15T08:38:01;3.80;;;1.00;;
69596;SDS011;70000;51.176;-115.568;2024-02-15T08:40:34;4.20;;;1.10;;
69596;SDS011;70000;51.176;-115.568;2024-02-15T08:43:03;3.90;;;1.00;;
69596;SDS011;70000;51.176;-115.568;2024-02-15T08:45:32;3.40;;;0.70;;
69596;SDS011;70000;51.176;-115.568;2024-02-15T08:48:03;4.30;;;1.00;;
69596;SDS011;70000;51.176;-115.568;2024-02-15T08:50:33;4.70;;;1.00;;
69596;SDS011;70000;51.176;-115.568;2024-02-15T08:53:08;3.60;;;1.00;;
69596;SDS011;70000;51.176;-115.568;2024-02-15T08:55:38;3.80;;;1.00;;
69596;SDS011;70000;51.176;-115.568;2024-02-15T08:58:07;4.70;;;0.90;;
69596;SDS011;70000;51.176;-115.568;2024-02-15T09:00:37;3.00;;;0.80;;
69596;SDS011;70000;51.176;-115.568;2024-02-15T09:03:12;3.00;;;0.70;;
69596;SDS011;70000;51.176;-115.568;2024-02-15T09:05:42;3.80;;;1.00;;
69596;SDS011;70000;51.176;-115.568;2024-02-15T09:08:11;4.20;;;1.00;;
69596;SDS011;70000;51.176;-115.568;2024-02-15T09:10:41;3.40;;;0.80;;
69596;SDS011;70000;51.176;-115.568;2024-02-15T09:13:10;4.80;;;0.90;;
69596;SDS011;70000;51.176;-115.568;2024-02-15T09:15:39;3.90;;;1.20;;
69596;SDS011;70000;51.176;-115.568;2024-02-15T09:21:27;3.20;;;1.10;;
69596;SDS011;70000;51.176;-115.568;2024-02-15T09:23:57;3.70;;;1.00;;
69596;SDS011;70000;51.176;-115.568;2024-02-15T09:26:26;3.20;;;0.80;;
69596;SDS011;70000;51.176;-115.568;2024-02-15T09:28:58;3.20;;;0.80;;
69596;SDS011;70000;51.176;-115.568;2024-02-15T09:31:30;3.50;;;1.00;;
69596;SDS011;70000;51.176;-115.568;2024-02-15T09:34:03;3.90;;;1.10;;
69596;SDS011;70000;51.176;-115.568;2024-02-15T09:36:35;2.90;;;0.80;;
69596;SDS011;70000;51.176;-115.568;2024-02-15T09:39:07;3.20;;;0.80;;
69596;SDS011;70000;51.176;-115.568;2024-02-15T09:41:36;3.80;;;1.00;;
69596;SDS011;70000;51.176;-115.568;2024-02-15T09:46:38;4.30;;;0.90;;
69596;SDS011;70000;51.176;-115.568;2024-02-15T09:49:15;4.10;;;1.00;;
69596;SDS011;70000;51.176;-115.568;2024-02-15T09:51:46;3.50;;;0.90;;
69596;SDS011;70000;51.176;-115.568;2024-02-15T09:54:17;5.50;;;0.90;;
69596;SDS011;70000;51.176;-115.568;2024-02-15T09:58:31;3.00;;;0.80;;
69596;SDS011;70000;51.176;-115.568;2024-02-15T10:01:04;3.80;;;0.90;;
69596;SDS011;70000;51.176;-115.568;2024-02-15T10:03:38;3.80;;;0.70;;
69596;SDS011;70000;51.176;-115.568;2024-02-15T10:06:10;5.40;;;0.90;;
69596;SDS011;70000;51.176;-115.568;2024-02-15T10:08:38;3.20;;;0.80;;
69596;SDS011;70000;51.176;-115.568;2024-02-15T10:11:10;4.20;;;0.90;;
69596;SDS011;70000;51.176;-115.568;2024-02-15T10:13:39;3.40;;;0.90;;
69596;SDS011;70000;51.176;-115.568;2024-02-15T10:16:20;2.90;;;0.70;;
69596;SDS011;70000;51.176;-115.568;2024-02-15T10:18:52;3.20;;;0.80;;
69596;SDS011;70000;51.176;-115.568;2024-02-15T10:21:36;3.40;;;0.90;;
69596;SDS011;70000;51.176;-115.568;2024-02-15T10:24:06;3.80;;;1.10;;
69596;SDS011;70000;51.176;-115.568;2024-02-15T10:26:36;3.30;;;0.80;;
69596;SDS011;70000;51.176;-115.568;2024-02-15T10:29:11;3.20;;;0.80;;
69596;SDS011;70000;51.176;-115.568;2024-02-15T10:31:40;3.30;;;0.80;;
69596;SDS011;70000;51.176;-115.568;2024-02-15T10:34:23;4.90;;;1.00;;
69596;SDS011;70000;51.176;-115.568;2024-02-15T10:36:55;3.40;;;0.90;;
69596;SDS011;70000;51.176;-115.568;2024-02-15T10:40:06;3.30;;;0.90;;
69596;SDS011;70000;51.176;-115.568;2024-02-15T10:42:36;3.40;;;0.80;;
69596;SDS011;70000;51.176;-115.568;2024-02-15T10:45:05;4.10;;;1.10;;
69596;SDS011;70000;51.176;-115.568;2024-02-15T10:47:39;3.70;;;1.00;;
69596;SDS011;70000;51.176;-115.568;2024-02-15T10:50:10;4.40;;;0.90;;
69596;SDS011;70000;51.176;-115.568;2024-02-15T10:52:48;2.80;;;0.70;;
69596;SDS011;70000;51.176;-115.568;2024-02-15T10:55:48;3.50;;;0.90;;
69596;SDS011;70000;51.176;-115.568;2024-02-15T10:58:49;3.30;;;0.80;;
69596;SDS011;70000;51.176;-115.568;2024-02-15T11:01:21;3.50;;;1.00;;
69596;SDS011;70000;51.176;-115.568;2024-02-15T11:03:57;3.40;;;1.00;;
69596;SDS011;70000;51.176;-115.568;2024-02-15T11:06:35;3.80;;;1.00;;
69596;SDS011;70000;51.176;-115.568;2024-02-15T11:09:10;3.40;;;0.90;;
69596;SDS011;70000;51.176;-115.568;2024-02-15T11:11:41;3.30;;;0.80;;
69596;SDS011;70000;51.176;-115.568;2024-02-15T11:14:28;3.70;;;0.90;;
69596;SDS011;70000;51.176;-115.568;2024-02-15T11:17:00;3.50;;;0.90;;
69596;SDS011;70000;51.176;-115.568;2024-02-15T11:22:14;4.40;;;1.10;;
69596;SDS011;70000;51.176;-115.568;2024-02-15T11:24:53;3.20;;;0.90;;
69596;SDS011;70000;51.176;-115.568;2024-02-15T11:27:29;4.60;;;1.00;;
69596;SDS011;70000;51.176;-115.568;2024-02-15T11:30:00;3.50;;;1.00;;
69596;SDS011;70000;51.176;-115.568;2024-02-15T11:32:50;3.30;;;0.90;;
69596;SDS011;70000;51.176;-115.568;2024-02-15T11:35:23;3.20;;;0.80;;
69596;SDS011;70000;51.176;-115.568;2024-02-15T11:37:55;3.50;;;1.00;;
69596;SDS011;70000;51.176;-115.568;2024-02-15T11:43:54;3.40;;;0.90;;
69596;SDS011;70000;51.176;-115.568;2024-02-15T11:46:27;3.70;;;1.00;;
69596;SDS011;70000;51.176;-115.568;2024-02-15T11:55:34;3.20;;;0.80;;
69596;SDS011;70000;51.176;-115.568;2024-02-15T11:58:03;3.60;;;0.90;;
69596;SDS011;70000;51.176;-115.568;2024-02-15T12:00:47;3.50;;;1.00;;
69596;SDS011;70000;51.176;-115.568;2024-02-15T12:03:33;3.00;;;0.80;;
69596;SDS011;70000;51.176;-115.568;2024-02-15T12:06:49;3.80;;;0.90;;
69596;SDS011;70000;51.176;-115.568;2024-02-15T12:09:43;4.90;;;1.00;;
69596;SDS011;70000;51.176;-115.568;2024-02-15T12:12:33;2.80;;;0.70;;
69596;SDS011;70000;51.176;-115.568;2024-02-15T12:15:20;3.00;;;0.80;;
69596;SDS011;70000;51.176;-115.568;2024-02-15T12:18:15;3.00;;;0.70;;
69596;SDS011;70000;51.176;-115.568;2024-02-15T12:21:05;2.80;;;0.70;;
69596;SDS011;70000;51.176;-115.568;2024-02-15T12:23:34;4.30;;;0.80;;
69596;SDS011;70000;51.176;-115.568;2024-02-15T12:26:04;3.60;;;1.00;;
69596;SDS011;70000;51.176;-115.568;2024-02-15T12:28:34;2.70;;;0.70;;
69596;SDS011;70000;51.176;-115.568;2024-02-15T12:31:03;3.10;;;0.80;;
69596;SDS011;70000;51.176;-115.568;2024-02-15T12:33:34;3.00;;;0.80;;
69596;SDS011;70000;51.176;-115.568;2024-02-15T12:36:06;3.40;;;0.90;;
69596;SDS011;70000;51.176;-115.568;2024-02-15T12:38:35;2.70;;;0.70;;
69596;SDS011;70000;51.176;-115.568;2024-02-15T12:41:20;3.30;;;0.80;;
69596;SDS011;70000;51.176;-115.568;2024-02-15T12:43:53;3.20;;;0.80;;
69596;SDS011;70000;51.176;-115.568;2024-02-15T12:46:23;3.80;;;0.90;;
69596;SDS011;70000;51.176;-115.568;2024-02-15T12:48:51;2.50;;;0.60;;
69596;SDS011;70000;51.176;-115.568;2024-02-15T12:51:36;2.90;;;0.70;;
69596;SDS011;70000;51.176;-115.568;2024-02-15T12:54:11;3.10;;;0.80;;
69596;SDS011;70000;51.176;-115.568;2024-02-15T12:57:17;3.30;;;0.90;;
69596;SDS011;70000;51.176;-115.568;2024-02-15T12:59:46;2.00;;;0.50;;
69596;SDS011;70000;51.176;-115.568;2024-02-15T13:02:15;3.60;;;0.90;;
69596;SDS011;70000;51.176;-115.568;2024-02-15T13:04:44;3.60;;;0.80;;
69596;SDS011;70000;51.176;-115.568;2024-02-15T13:07:13;3.10;;;0.80;;
69596;SDS011;70000;51.176;-115.568;2024-02-15T13:09:42;3.60;;;0.80;;
69596;SDS011;70000;51.176;-115.568;2024-02-15T13:12:16;4.20;;;1.10;;
69596;SDS011;70000;51.176;-115.568;2024-02-15T13:14:46;3.70;;;0.90;;
69596;SDS011;70000;51.176;-115.568;2024-02-15T13:17:16;3.40;;;0.90;;
69596;SDS011;70000;51.176;-115.568;2024-02-15T13:19:48;3.20;;;0.80;;
69596;SDS011;70000;51.176;-115.568;2024-02-15T13:24:46;3.20;;;0.70;;
69596;SDS011;70000;51.176;-115.568;2024-02-15T13:27:15;3.30;;;0.90;;
69596;SDS011;70000;51.176;-115.568;2024-02-15T13:29:45;6.40;;;1.20;;
69596;SDS011;70000;51.176;-115.568;2024-02-15T13:32:31;4.00;;;0.80;;
69596;SDS011;70000;51.176;-115.568;2024-02-15T13:35:01;4.00;;;0.70;;
69596;SDS011;70000;51.176;-115.568;2024-02-15T13:39:39;2.40;;;0.50;;
69596;SDS011;70000;51.176;-115.568;2024-02-15T13:42:13;2.60;;;0.60;;
69596;SDS011;70000;51.176;-115.568;2024-02-15T13:44:44;2.20;;;0.50;;
69596;SDS011;70000;51.176;-115.568;2024-02-15T13:47:17;2.80;;;0.60;;
69596;SDS011;70000;51.176;-115.568;2024-02-15T13:49:46;2.60;;;0.60;;
69596;SDS011;70000;51.176;-115.568;2024-02-15T13:52:16;4.10;;;0.90;;
69596;SDS011;70000;51.176;-115.568;2024-02-15T13:54:45;5.30;;;1.00;;
69596;SDS011;70000;51.176;-115.568;2024-02-15T13:57:14;2.40;;;0.60;;
69596;SDS011;70000;51.176;-115.568;2024-02-15T13:59:45;2.80;;;0.70;;
69596;SDS011;70000;51.176;-115.568;2024-02-15T14:02:14;2.90;;;0.70;;
69596;SDS011;70000;51.176;-115.568;2024-02-15T14:04:43;3.20;;;0.70;;
69596;SDS011;70000;51.176;-115.568;2024-02-15T14:07:12;3.00;;;0.70;;
69596;SDS011;70000;51.176;-115.568;2024-02-15T14:09:43;2.90;;;0.70;;
69596;SDS011;70000;51.176;-115.568;2024-02-15T14:12:19;3.40;;;0.80;;
69596;SDS011;70000;51.176;-115.568;2024-02-15T14:14:48;3.40;;;0.70;;
69596;SDS011;70000;51.176;-115.568;2024-02-15T14:17:17;4.70;;;1.20;;
69596;SDS011;70000;51.176;-115.568;2024-02-15T14:19:48;5.00;;;1.30;;
69596;SDS011;70000;51.176;-115.568;2024-02-15T14:22:20;7.70;;;1.90;;
69596;SDS011;70000;51.176;-115.568;2024-02-15T14:24:51;5.20;;;1.10;;
69596;SDS011;70000;51.176;-115.568;2024-02-15T14:27:21;3.60;;;0.90;;
69596;SDS011;70000;51.176;-115.568;2024-02-15T14:29:51;4.10;;;0.90;;
69596;SDS011;70000;51.176;-115.568;2024-02-15T14:32:38;3.60;;;0.80;;
69596;SDS011;70000;51.176;-115.568;2024-02-15T14:35:35;3.20;;;0.80;;
69596;SDS011;70000;51.176;-115.568;2024-02-15T14:38:11;4.10;;;0.90;;
69596;SDS011;70000;51.176;-115.568;2024-02-15T14:40:45;3.10;;;0.80;;
69596;SDS011;70000;51.176;-115.568;2024-02-15T14:43:20;8.10;;;1.10;;
69596;SDS011;70000;51.176;-115.568;2024-02-15T14:45:49;3.80;;;1.00;;
69596;SDS011;70000;51.176;-115.568;2024-02-15T14:48:20;2.90;;;0.90;;
69596;SDS011;70000;51.176;-115.568;2024-02-15T14:50:49;4.40;;;1.00;;
69596;SDS011;70000;51.176;-115.568;2024-02-15T14:53:19;4.40;;;1.20;;
69596;SDS011;70000;51.176;-115.568;2024-02-15T14:55:50;2.60;;;0.60;;
69596;SDS011;70000;51.176;-115.568;2024-02-15T14:58:21;2.90;;;0.80;;
69596;SDS011;70000;51.176;-115.568;2024-02-15T15:00:56;3.40;;;0.90;;
69596;SDS011;70000;51.176;-115.568;2024-02-15T15:03:35;3.40;;;0.80;;
69596;SDS011;70000;51.176;-115.568;2024-02-15T15:06:07;2.70;;;0.60;;
69596;SDS011;70000;51.176;-115.568;2024-02-15T15:08:55;4.50;;;1.20;;
69596;SDS011;70000;51.176;-115.568;2024-02-15T15:11:43;2.70;;;0.60;;
69596;SDS011;70000;51.176;-115.568;2024-02-15T15:14:31;4.20;;;0.80;;